Terminal Aerodrome Forecast
Issued by NWS Melbourne, FL

Home | Current Version | Previous Version | Text Only | Print | Product List | Glossary On
Versions: 1 2 3 4 5 6 7 8 9 10 11 12 13 14 15 16
000
FTUS42 KMLB 222158 AAA
TAFDAB
TAF AMD
KDAB 222158Z 2222/2318 21016G28KT P6SM VCSH BKN040
     FM230000 21014G26KT P6SM VCTS BKN035CB
      TEMPO 2300/2302 25020G40KT 2SM +TSRA BKN015CB
     FM230200 23015G24KT P6SM -SHRA BKN035
     FM230400 22015KT P6SM BKN035=

USA.gov is the U.S. government's official web portal to all federal, state and local government web resources and services.